Time;durP1;ratioP1;P1;durP2;ratioP2;P2;SDS_P1;SDS_P2;PMS_P1;PMS_P2;Temp;Humidity;BMP_temperature;BMP_pressure;BME280_temperature;BME280_humidity;BME280_pressure;Samples;Min_cycle;Max_cycle;Signal;HPM_P1;HPM_P2
2023/06/04 00:00:37;;;;;;;4.30;2.70;;;;;;;17.39;39.71;101076.13;108450;1274;21993;-66
2023/06/04 00:03:02;;;;;;;3.60;1.80;;;;;;;17.34;39.65;101073.98;108484;1274;21971;-59
2023/06/04 00:05:28;;;;;;;5.10;2.50;;;;;;;17.30;39.70;101074.63;108440;1276;21989;-66
2023/06/04 00:07:53;;;;;;;6.00;2.60;;;;;;;17.26;39.77;101076.52;108427;1276;21986;-59
2023/06/04 00:10:19;;;;;;;12.20;3.60;;;;;;;17.24;39.71;101074.61;108493;1273;21977;-60
2023/06/04 00:12:45;;;;;;;4.80;2.30;;;;;;;17.21;39.73;101079.85;108600;1273;22093;-66
2023/06/04 00:15:12;;;;;;;4.50;1.80;;;;;;;17.19;39.80;101076.55;108633;1278;21980;-61
2023/06/04 00:17:38;;;;;;;4.10;2.90;;;;;;;17.17;39.80;101078.73;108566;1271;22018;-65
2023/06/04 00:20:04;;;;;;;6.20;2.20;;;;;;;17.13;39.92;101078.50;108495;1273;21976;-65
2023/06/04 00:22:31;;;;;;;6.50;2.60;;;;;;;17.10;39.87;101080.86;108450;1277;23711;-60
2023/06/04 00:24:56;;;;;;;5.60;1.70;;;;;;;17.09;39.87;101078.58;108482;1273;21985;-66
2023/06/04 00:27:22;;;;;;;3.10;1.60;;;;;;;17.07;39.88;101073.13;108434;1278;21983;-65
2023/06/04 00:29:47;;;;;;;4.50;1.50;;;;;;;17.03;39.82;101073.26;108555;1279;21975;-60
2023/06/04 00:32:13;;;;;;;2.30;1.30;;;;;;;16.99;39.78;101071.61;108417;1273;21994;-68
2023/06/04 00:34:39;;;;;;;3.80;1.70;;;;;;;16.97;39.87;101069.54;108499;1274;21990;-66
2023/06/04 00:37:04;;;;;;;3.70;1.40;;;;;;;16.94;39.90;101070.12;108282;1278;152957;-60
2023/06/04 00:39:30;;;;;;;3.30;2.60;;;;;;;16.91;39.98;101072.66;108408;1268;22039;-66
2023/06/04 00:41:56;;;;;;;7.00;2.30;;;;;;;16.91;40.10;101067.89;108552;1270;22037;-66
2023/06/04 00:44:24;;;;;;;5.90;1.70;;;;;;;16.89;40.00;101069.02;108603;1280;21981;-58
2023/06/04 00:46:53;;;;;;;6.70;1.80;;;;;;;16.85;39.99;101069.65;108610;1280;22056;-60
2023/06/04 00:49:19;;;;;;;5.20;1.50;;;;;;;16.82;40.08;101070.62;108566;1273;21986;-60
2023/06/04 00:51:45;;;;;;;6.40;1.60;;;;;;;16.78;40.11;101073.71;108640;1280;21992;-60
2023/06/04 00:54:11;;;;;;;5.70;1.50;;;;;;;16.74;40.18;101072.25;108642;1277;21981;-60
2023/06/04 00:56:38;;;;;;;5.00;1.30;;;;;;;16.70;40.20;101072.54;108583;1280;21987;-59
2023/06/04 00:59:05;;;;;;;3.40;1.40;;;;;;;16.65;40.10;101071.77;108494;1279;22020;-60
2023/06/04 01:01:45;;;;;;;5.80;1.60;;;;;;;16.60;40.22;101073.68;108520;1273;21981;-60
2023/06/04 01:04:17;;;;;;;8.60;1.60;;;;;;;16.56;40.26;101075.74;108542;1278;22033;-60
2023/06/04 01:06:47;;;;;;;3.90;1.80;;;;;;;16.51;40.28;101075.33;108501;1273;21989;-60
2023/06/04 01:09:13;;;;;;;4.70;1.40;;;;;;;16.47;40.41;101078.25;108639;1278;21996;-66
2023/06/04 01:11:39;;;;;;;4.20;1.30;;;;;;;16.43;40.32;101080.83;108535;1274;21980;-66
2023/06/04 01:14:08;;;;;;;6.70;1.80;;;;;;;16.39;40.49;101081.12;108433;1274;22148;-67
2023/06/04 01:17:08;;;;;;;4.30;1.60;;;;;;;16.39;40.39;101081.83;108539;1271;23069;-66
2023/06/04 01:19:44;;;;;;;1.60;1.00;;;;;;;16.36;40.42;101083.50;108546;1279;21986;-68
2023/06/04 01:22:16;;;;;;;5.30;1.40;;;;;;;16.33;40.47;101088.37;108564;1277;23647;-59
2023/06/04 01:24:41;;;;;;;3.80;1.80;;;;;;;16.31;40.58;101091.59;108556;1270;21976;-67
2023/06/04 01:27:08;;;;;;;4.60;1.90;;;;;;;16.29;40.55;101089.89;108440;1274;22442;-59
2023/06/04 01:29:36;;;;;;;3.80;2.60;;;;;;;16.26;40.61;101090.48;108555;1274;21987;-66
2023/06/04 01:32:01;;;;;;;4.40;1.60;;;;;;;16.22;40.65;101089.52;108599;1271;22018;-66
2023/06/04 01:34:27;;;;;;;2.60;1.30;;;;;;;16.19;40.66;101086.20;108499;1273;21980;-60
2023/06/04 01:36:53;;;;;;;3.60;1.70;;;;;;;16.16;40.68;101089.11;108510;1278;21978;-66
2023/06/04 01:39:19;;;;;;;4.60;2.10;;;;;;;16.12;40.68;101095.78;107847;1279;1003190;-66
2023/06/04 01:41:45;;;;;;;5.20;1.30;;;;;;;16.09;40.67;101095.14;108494;1270;22770;-59
2023/06/04 01:44:10;;;;;;;3.00;1.60;;;;;;;16.06;40.76;101094.16;108555;1276;23615;-59
2023/06/04 01:46:36;;;;;;;5.90;2.20;;;;;;;16.04;40.84;101090.66;108617;1273;21971;-59
2023/06/04 01:49:02;;;;;;;6.20;1.50;;;;;;;16.01;40.83;101088.77;108582;1270;21988;-59
2023/06/04 01:51:27;;;;;;;3.20;1.30;;;;;;;16.00;40.90;101089.69;108447;1280;22002;-59
2023/06/04 01:53:53;;;;;;;4.60;1.30;;;;;;;15.99;40.93;101091.98;108515;1270;22044;-61
2023/06/04 01:56:20;;;;;;;6.40;1.40;;;;;;;16.00;40.87;101100.30;108524;1274;22042;-67
2023/06/04 01:58:46;;;;;;;7.60;2.10;;;;;;;15.99;40.96;101103.16;108480;1278;21980;-60
2023/06/04 02:01:12;;;;;;;9.10;1.60;;;;;;;15.94;40.98;101101.50;108541;1280;21985;-59
2023/06/04 02:03:37;;;;;;;3.70;1.40;;;;;;;15.88;40.92;101104.48;108656;1273;22018;-62
2023/06/04 02:06:07;;;;;;;3.10;1.40;;;;;;;15.83;40.96;101108.08;108530;1277;23605;-59
2023/06/04 02:08:34;;;;;;;6.10;1.80;;;;;;;15.79;41.02;101108.54;108569;1270;21996;-66
2023/06/04 02:10:59;;;;;;;3.40;1.40;;;;;;;15.73;40.96;101109.71;108609;1280;21988;-59
2023/06/04 02:13:25;;;;;;;5.40;1.30;;;;;;;15.68;41.13;101113.36;108589;1274;21990;-61
2023/06/04 02:15:51;;;;;;;7.10;1.50;;;;;;;15.66;41.28;101116.27;108600;1274;21985;-59
2023/06/04 02:18:20;;;;;;;6.20;1.20;;;;;;;15.64;41.31;101119.31;108550;1280;21985;-66
2023/06/04 02:20:47;;;;;;;6.20;2.40;;;;;;;15.47;41.61;101127.61;108653;1268;23052;-59
2023/06/04 02:23:14;;;;;;;3.90;1.80;;;;;;;15.37;41.86;101135.08;108632;1273;21986;-60
2023/06/04 02:25:39;;;;;;;6.60;2.00;;;;;;;15.33;41.91;101139.05;108594;1271;21971;-66
2023/06/04 02:28:06;;;;;;;5.00;1.60;;;;;;;15.31;41.98;101139.60;108525;1280;22167;-64
2023/06/04 02:30:32;;;;;;;11.70;1.40;;;;;;;15.31;42.07;101138.89;108690;1270;22058;-68
2023/06/04 02:33:00;;;;;;;3.20;0.90;;;;;;;15.31;42.13;101139.59;108561;1273;21999;-59
2023/06/04 02:35:28;;;;;;;4.90;2.00;;;;;;;15.31;42.12;101142.61;108439;1274;22004;-68
2023/06/04 02:37:54;;;;;;;7.80;1.60;;;;;;;15.29;42.23;101146.52;108425;1273;21981;-67
2023/06/04 02:40:20;;;;;;;4.90;1.60;;;;;;;15.30;42.32;101149.34;108475;1274;22042;-60
2023/06/04 02:42:46;;;;;;;8.00;1.50;;;;;;;15.33;42.37;101148.75;108405;1279;24093;-60
2023/06/04 02:45:12;;;;;;;6.40;2.00;;;;;;;15.36;42.28;101150.13;108404;1274;21990;-67
2023/06/04 02:47:38;;;;;;;3.10;1.50;;;;;;;15.36;42.34;101150.31;108364;1268;21977;-59
2023/06/04 02:50:05;;;;;;;4.20;1.50;;;;;;;15.37;42.44;101156.29;108416;1279;21980;-67
2023/06/04 02:52:32;;;;;;;6.80;2.00;;;;;;;15.40;42.55;101155.70;108412;1277;21990;-59
2023/06/04 02:54:58;;;;;;;3.70;1.30;;;;;;;15.43;42.45;101158.30;108422;1279;21988;-67
2023/06/04 02:57:24;;;;;;;5.50;1.10;;;;;;;15.43;42.48;101160.05;108430;1279;21980;-65
2023/06/04 02:59:49;;;;;;;5.80;1.40;;;;;;;15.44;42.65;101160.40;108486;1268;23047;-67
2023/06/04 03:02:15;;;;;;;4.90;1.70;;;;;;;15.46;42.77;101161.95;108412;1274;21982;-67
2023/06/04 03:04:42;;;;;;;3.20;1.50;;;;;;;15.49;42.82;101165.25;108430;1279;22076;-59
2023/06/04 03:07:11;;;;;;;3.30;1.90;;;;;;;15.51;42.64;101166.10;108453;1268;21993;-67
2023/06/04 03:09:38;;;;;;;4.40;2.90;;;;;;;15.66;42.50;101171.26;108443;1279;21980;-59
2023/06/04 03:12:04;;;;;;;5.80;1.90;;;;;;;15.74;42.25;101177.10;108431;1274;21979;-66
2023/06/04 03:14:34;;;;;;;4.00;1.20;;;;;;;15.79;42.28;101179.67;108578;1270;21990;-66
2023/06/04 03:17:01;;;;;;;7.10;2.10;;;;;;;15.85;42.33;101179.91;108504;1270;24329;-61
2023/06/04 03:19:27;;;;;;;3.20;1.90;;;;;;;15.92;42.41;101179.60;109238;1278;21979;-67
2023/06/04 03:21:53;;;;;;;11.50;1.90;;;;;;;15.96;42.49;101177.20;108438;1274;21987;-59
2023/06/04 03:24:19;;;;;;;5.40;1.60;;;;;;;15.86;42.78;101184.11;108401;1274;21985;-60
2023/06/04 03:26:45;;;;;;;2.90;1.50;;;;;;;15.86;42.96;101185.73;108456;1273;23810;-60
2023/06/04 03:29:11;;;;;;;6.10;2.90;;;;;;;15.90;43.11;101182.30;108512;1273;21986;-59
2023/06/04 03:31:37;;;;;;;5.70;1.70;;;;;;;15.94;42.91;101181.67;108455;1270;21981;-59
2023/06/04 03:34:02;;;;;;;4.60;2.20;;;;;;;16.10;42.90;101181.52;108484;1274;21971;-59
2023/06/04 03:36:37;;;;;;;4.50;1.90;;;;;;;16.23;42.80;101186.35;108458;1277;21981;-66
2023/06/04 03:39:04;;;;;;;4.40;1.80;;;;;;;16.32;42.74;101186.66;108460;1270;21991;-65
2023/06/04 03:41:30;;;;;;;9.20;3.10;;;;;;;16.39;42.74;101183.30;108517;1274;21968;-60
2023/06/04 03:43:56;;;;;;;2.60;1.90;;;;;;;16.45;42.81;101187.59;108522;1270;21980;-66
2023/06/04 03:46:21;;;;;;;4.90;1.80;;;;;;;16.53;42.83;101187.60;108491;1277;22450;-65
2023/06/04 03:48:47;;;;;;;5.00;2.60;;;;;;;16.60;42.80;101188.83;108605;1273;22450;-63
2023/06/04 03:51:13;;;;;;;4.80;2.30;;;;;;;16.66;42.92;101188.69;108387;1279;22019;-66
2023/06/04 03:53:41;;;;;;;4.90;1.80;;;;;;;16.73;42.85;101188.35;108398;1268;21977;-59
2023/06/04 03:56:06;;;;;;;3.90;2.00;;;;;;;16.80;42.87;101191.70;108383;1272;21982;-60
2023/06/04 03:58:37;;;;;;;2.50;1.40;;;;;;;16.88;42.87;101190.80;108416;1279;21983;-59
2023/06/04 04:01:05;;;;;;;3.10;2.80;;;;;;;16.99;42.99;101190.90;108401;1277;21980;-66
2023/06/04 04:03:31;;;;;;;4.40;2.60;;;;;;;17.10;42.95;101192.05;108415;1279;21999;-60
2023/06/04 04:06:00;;;;;;;5.00;3.00;;;;;;;17.21;42.97;101196.91;108414;1277;21982;-65
2023/06/04 04:08:31;;;;;;;5.00;2.90;;;;;;;17.33;43.09;101199.05;108417;1277;21992;-59
2023/06/04 04:10:58;;;;;;;8.90;3.20;;;;;;;17.47;43.05;101197.23;108523;1273;21983;-65
2023/06/04 04:13:23;;;;;;;7.30;2.80;;;;;;;17.64;43.07;101197.13;108490;1268;22055;-66
2023/06/04 04:15:52;;;;;;;5.80;2.60;;;;;;;17.80;43.02;101200.94;108438;1273;21978;-65
2023/06/04 04:18:21;;;;;;;5.10;2.60;;;;;;;17.94;42.93;101203.53;108455;1273;21991;-60
2023/06/04 04:20:47;;;;;;;4.30;2.50;;;;;;;18.06;42.90;101204.25;108468;1268;21988;-59
2023/06/04 04:23:13;;;;;;;4.50;4.00;;;;;;;18.19;42.73;101207.06;108463;1279;21968;-59
2023/06/04 04:25:39;;;;;;;5.40;4.70;;;;;;;18.32;42.77;101207.19;108461;1273;22456;-64
2023/06/04 04:28:07;;;;;;;7.10;4.30;;;;;;;18.44;42.76;101210.91;107731;1273;1002606;-60
2023/06/04 04:30:36;;;;;;;4.70;3.30;;;;;;;18.54;42.52;101215.39;108496;1279;21989;-59
2023/06/04 04:33:02;;;;;;;5.50;5.00;;;;;;;18.66;42.63;101213.56;108407;1276;21979;-67
2023/06/04 04:35:28;;;;;;;6.80;3.50;;;;;;;18.79;42.52;101215.99;108453;1268;21998;-60
2023/06/04 04:37:55;;;;;;;3.10;2.90;;;;;;;18.91;42.58;101219.34;108428;1277;23719;-66
2023/06/04 04:40:21;;;;;;;13.90;12.20;;;;;;;19.05;42.52;101216.23;108439;1274;21994;-65
2023/06/04 04:42:47;;;;;;;10.30;7.30;;;;;;;19.20;42.60;101217.48;108435;1274;21978;-66
2023/06/04 04:45:12;;;;;;;11.90;9.40;;;;;;;19.39;42.62;101218.61;108413;1273;22450;-59
2023/06/04 04:47:38;;;;;;;16.80;14.50;;;;;;;19.56;42.53;101220.81;108515;1277;23075;-60
2023/06/04 04:50:05;;;;;;;20.90;18.70;;;;;;;19.71;42.42;101221.35;108432;1271;21980;-60
2023/06/04 04:52:31;;;;;;;22.30;20.20;;;;;;;19.85;42.14;101222.26;108488;1278;22251;-59
2023/06/04 04:54:57;;;;;;;32.90;29.40;;;;;;;19.99;42.03;101224.08;108520;1270;22021;-64
2023/06/04 04:57:23;;;;;;;31.80;28.60;;;;;;;20.11;42.02;101225.05;108429;1270;22435;-58
2023/06/04 04:59:49;;;;;;;43.40;39.00;;;;;;;20.38;42.68;101219.02;108456;1274;21944;-64
2023/06/04 05:02:15;;;;;;;47.90;40.60;;;;;;;20.71;42.45;101218.40;108489;1274;21980;-64
2023/06/04 05:04:41;;;;;;;58.90;52.60;;;;;;;20.95;41.97;101216.54;108485;1273;22009;-66
2023/06/04 05:07:06;;;;;;;71.20;63.00;;;;;;;21.13;41.60;101219.52;108485;1268;21982;-64
2023/06/04 05:09:32;;;;;;;87.60;78.10;;;;;;;21.32;41.61;101219.05;108482;1274;21995;-64
2023/06/04 05:11:58;;;;;;;95.90;85.90;;;;;;;21.55;41.45;101218.92;108492;1273;21993;-64
2023/06/04 05:14:23;;;;;;;110.00;98.40;;;;;;;21.74;41.11;101215.42;108491;1269;21981;-67
2023/06/04 05:16:49;;;;;;;104.90;93.70;;;;;;;21.90;40.87;101219.50;107747;1280;1002615;-64
2023/06/04 05:19:17;;;;;;;115.10;103.30;;;;;;;22.06;40.73;101219.64;108502;1280;21991;-65
2023/06/04 05:21:44;;;;;;;137.20;123.30;;;;;;;22.23;40.55;101218.52;108479;1270;21997;-65
2023/06/04 05:24:10;;;;;;;138.70;123.70;;;;;;;22.36;40.29;101220.01;108503;1270;21985;-59
2023/06/04 05:26:37;;;;;;;164.20;147.90;;;;;;;22.51;39.94;101216.45;108551;1277;21998;-62
2023/06/04 05:29:04;;;;;;;175.80;159.00;;;;;;;22.69;39.82;101215.95;108536;1280;22456;-65
2023/06/04 05:31:33;;;;;;;196.30;176.00;;;;;;;22.87;39.71;101217.72;108482;1280;21994;-59
2023/06/04 05:34:04;;;;;;;214.20;193.90;;;;;;;23.04;39.36;101215.78;108458;1275;21976;-59
2023/06/04 05:36:30;;;;;;;224.90;203.40;;;;;;;23.19;38.98;101214.69;108592;1267;23046;-65
2023/06/04 05:38:59;;;;;;;279.30;250.00;;;;;;;23.33;39.02;101213.95;108514;1270;21982;-66
2023/06/04 05:41:28;;;;;;;256.10;230.10;;;;;;;23.50;38.64;101216.48;108451;1279;21985;-64
2023/06/04 05:43:54;;;;;;;263.20;237.30;;;;;;;23.68;38.76;101214.65;108465;1271;21983;-66
2023/06/04 05:46:21;;;;;;;307.60;277.50;;;;;;;23.88;38.60;101214.27;108420;1277;21986;-64
2023/06/04 05:48:47;;;;;;;331.30;299.50;;;;;;;24.09;38.42;101217.95;108495;1267;21983;-66
2023/06/04 05:51:13;;;;;;;341.60;307.20;;;;;;;24.30;38.28;101215.19;108410;1273;22015;-66
2023/06/04 05:53:38;;;;;;;371.60;334.30;;;;;;;24.49;38.21;101213.59;108450;1279;21989;-66
2023/06/04 05:56:04;;;;;;;392.10;353.80;;;;;;;24.68;38.13;101215.73;108404;1277;21983;-63
2023/06/04 05:58:32;;;;;;;414.50;373.70;;;;;;;24.87;37.66;101219.33;108435;1277;21980;-66
2023/06/04 06:00:57;;;;;;;420.80;379.10;;;;;;;25.00;37.32;101224.44;108415;1268;21983;-61
2023/06/04 06:03:23;;;;;;;487.80;440.30;;;;;;;25.12;36.80;101226.98;108428;1270;21985;-62
2023/06/04 06:05:48;;;;;;;472.70;427.10;;;;;;;25.22;36.59;101228.73;108425;1274;21991;-67
2023/06/04 06:08:14;;;;;;;567.40;514.70;;;;;;;25.31;36.42;101228.33;108447;1277;21980;-68
2023/06/04 06:10:40;;;;;;;512.40;463.70;;;;;;;25.38;35.81;101224.13;108432;1274;23644;-67
2023/06/04 06:13:07;;;;;;;517.80;469.20;;;;;;;25.46;36.02;101220.09;108604;1279;21981;-66
2023/06/04 06:15:32;;;;;;;541.60;490.10;;;;;;;25.62;35.97;101214.80;108609;1279;21980;-63
2023/06/04 06:17:58;;;;;;;570.90;518.70;;;;;;;25.79;35.70;101214.11;108406;1274;21990;-61
2023/06/04 06:20:24;;;;;;;605.10;548.40;;;;;;;25.95;35.51;101212.94;108538;1279;21984;-65
2023/06/04 06:22:50;;;;;;;587.70;532.00;;;;;;;26.07;35.18;101213.04;108515;1270;21987;-62
2023/06/04 06:25:16;;;;;;;586.50;530.30;;;;;;;26.19;35.39;101210.16;108425;1279;21989;-66
2023/06/04 06:27:42;;;;;;;632.70;575.00;;;;;;;26.38;35.33;101209.98;108471;1277;21981;-62
2023/06/04 06:30:09;;;;;;;638.80;580.10;;;;;;;26.58;34.85;101209.38;108438;1279;21980;-63
2023/06/04 06:32:35;;;;;;;652.80;590.50;;;;;;;26.76;34.80;101205.81;108503;1274;21982;-61
2023/06/04 06:35:01;;;;;;;665.50;602.10;;;;;;;26.94;34.53;101208.80;108408;1277;21981;-67
2023/06/04 06:37:27;;;;;;;655.80;595.20;;;;;;;27.07;34.08;101205.27;108411;1279;21978;-66
2023/06/04 06:39:52;;;;;;;653.30;592.40;;;;;;;27.15;33.67;101205.54;108406;1277;21984;-60
2023/06/04 06:42:19;;;;;;;678.10;613.20;;;;;;;27.26;33.70;101202.82;108474;1273;23290;-66
2023/06/04 06:44:44;;;;;;;721.40;654.70;;;;;;;27.39;33.45;101205.02;108392;1277;21990;-67
2023/06/04 06:47:13;;;;;;;695.90;630.70;;;;;;;27.50;33.34;101203.70;108462;1271;22042;-66
2023/06/04 06:49:40;;;;;;;719.90;650.80;;;;;;;27.67;33.44;101211.71;108438;1270;21988;-68
2023/06/04 06:52:05;;;;;;;742.40;672.90;;;;;;;27.81;32.89;101208.53;108411;1279;22186;-61
2023/06/04 06:54:31;;;;;;;742.20;671.40;;;;;;;27.88;32.94;101209.09;108438;1274;21991;-62
2023/06/04 06:56:57;;;;;;;741.00;671.90;;;;;;;28.01;32.88;101205.86;108486;1271;21985;-68
2023/06/04 06:59:24;;;;;;;769.70;695.00;;;;;;;28.15;32.86;101207.38;108413;1270;21983;-63
2023/06/04 07:01:49;;;;;;;773.80;700.10;;;;;;;28.30;32.58;101200.86;108633;1268;22045;-65
2023/06/04 07:04:15;;;;;;;794.60;718.40;;;;;;;28.43;32.06;101201.73;108513;1276;22021;-62
2023/06/04 07:06:41;;;;;;;767.40;694.90;;;;;;;28.48;32.36;101204.73;108458;1271;21980;-63
2023/06/04 07:09:08;;;;;;;791.80;717.40;;;;;;;28.56;31.98;101204.00;108412;1279;23842;-67
2023/06/04 07:11:34;;;;;;;805.60;728.30;;;;;;;28.66;32.07;101207.35;108456;1276;21980;-62
2023/06/04 07:14:02;;;;;;;771.00;697.40;;;;;;;28.80;32.04;101204.53;108417;1268;22021;-65
2023/06/04 07:16:28;;;;;;;784.10;710.00;;;;;;;28.96;32.01;101205.36;108438;1279;21993;-67
2023/06/04 07:18:54;;;;;;;819.60;738.80;;;;;;;29.11;31.65;101206.49;108438;1279;21976;-61
2023/06/04 07:21:21;;;;;;;803.10;727.20;;;;;;;29.23;31.56;101206.84;108434;1279;21987;-62
2023/06/04 07:23:50;;;;;;;843.20;759.30;;;;;;;29.35;31.60;101200.89;108555;1268;21985;-67
2023/06/04 07:26:17;;;;;;;829.90;747.20;;;;;;;29.50;31.23;101200.08;108631;1274;21977;-62
2023/06/04 07:28:43;;;;;;;832.20;753.20;;;;;;;29.60;30.94;101201.24;108682;1274;22132;-62
2023/06/04 07:31:09;;;;;;;849.20;766.40;;;;;;;29.71;30.68;101205.11;108623;1268;21988;-65
2023/06/04 07:33:42;;;;;;;834.10;751.30;;;;;;;29.69;30.56;101207.57;108614;1280;21975;-61
2023/06/04 07:36:12;;;;;;;880.50;793.70;;;;;;;29.72;30.49;101210.46;108550;1273;21971;-66
2023/06/04 07:38:38;;;;;;;834.20;754.50;;;;;;;29.73;30.43;101207.42;108466;1273;21984;-67
2023/06/04 07:41:04;;;;;;;866.00;782.30;;;;;;;29.76;30.21;101202.87;108646;1271;21979;-62
2023/06/04 07:43:29;;;;;;;874.80;790.20;;;;;;;29.85;30.47;101201.42;108463;1277;21984;-69
2023/06/04 07:45:55;;;;;;;876.90;788.50;;;;;;;29.98;30.05;101201.11;108496;1277;21983;-68
2023/06/04 07:48:21;;;;;;;886.50;800.70;;;;;;;30.05;29.73;101201.64;108414;1280;21986;-64
2023/06/04 07:50:47;;;;;;;911.70;819.70;;;;;;;30.15;29.95;101196.86;108473;1277;23650;-69
2023/06/04 07:53:13;;;;;;;900.20;811.40;;;;;;;30.33;29.78;101195.72;108591;1278;21990;-64
2023/06/04 07:55:38;;;;;;;905.00;814.10;;;;;;;30.51;29.48;101200.92;108498;1274;22808;-67
2023/06/04 07:58:05;;;;;;;911.20;820.30;;;;;;;30.55;28.95;101202.98;108472;1277;22757;-67
2023/06/04 08:00:32;;;;;;;905.40;815.80;;;;;;;30.36;28.72;101202.76;108556;1277;24440;-63
2023/06/04 08:02:57;;;;;;;908.80;817.10;;;;;;;30.23;29.03;101200.93;108562;1277;21988;-64
2023/06/04 08:05:23;;;;;;;898.00;809.10;;;;;;;30.34;29.01;101201.97;108460;1277;21984;-67
2023/06/04 08:07:49;;;;;;;891.40;802.80;;;;;;;30.42;29.14;101195.87;108451;1277;21982;-62
2023/06/04 08:10:16;;;;;;;916.80;826.60;;;;;;;30.56;29.32;101188.91;108504;1277;22153;-67
2023/06/04 08:12:42;;;;;;;921.20;830.10;;;;;;;30.78;29.02;101185.50;108391;1274;21981;-67
2023/06/04 08:15:09;;;;;;;911.80;819.50;;;;;;;30.97;29.20;101181.88;108365;1277;21991;-64
2023/06/04 08:17:34;;;;;;;914.50;822.70;;;;;;;31.11;29.07;101177.20;108459;1274;21980;-68
2023/06/04 08:20:00;;;;;;;949.60;851.70;;;;;;;31.30;28.93;101176.83;108812;1276;21986;-63
2023/06/04 08:22:29;;;;;;;926.10;830.70;;;;;;;31.50;28.81;101181.96;108742;1279;21997;-61
2023/06/04 08:24:55;;;;;;;930.70;835.20;;;;;;;31.68;28.35;101177.91;108833;1279;21989;-67
2023/06/04 08:27:21;;;;;;;937.40;840.70;;;;;;;31.83;28.47;101172.89;108630;1279;23631;-67
2023/06/04 08:29:46;;;;;;;974.30;869.00;;;;;;;31.93;27.92;101173.66;108732;1277;21990;-66
2023/06/04 08:32:12;;;;;;;927.70;831.40;;;;;;;32.00;28.22;101173.92;108483;1271;22158;-62
2023/06/04 08:34:38;;;;;;;974.80;870.00;;;;;;;32.18;28.07;101170.52;108384;1279;21976;-67
2023/06/04 08:37:04;;;;;;;970.80;872.30;;;;;;;32.38;28.04;101169.23;108540;1280;21983;-66
2023/06/04 08:39:30;;;;;;;970.70;867.20;;;;;;;32.55;27.79;101167.64;108487;1280;22415;-70
2023/06/04 08:41:59;;;;;;;970.30;868.10;;;;;;;32.78;27.74;101166.24;108576;1270;23647;-69
2023/06/04 08:44:25;;;;;;;983.30;879.60;;;;;;;33.21;27.68;101164.20;108844;1274;22156;-73
2023/06/04 08:46:52;;;;;;;983.60;878.90;;;;;;;33.74;27.57;101164.38;108501;1270;21986;-63
2023/06/04 08:49:18;;;;;;;1039.40;896.40;;;;;;;34.17;27.14;101167.64;108483;1268;21984;-71
2023/06/04 08:51:44;;;;;;;1002.10;887.30;;;;;;;34.42;26.50;101166.20;108471;1280;22023;-71
2023/06/04 08:54:11;;;;;;;1060.50;894.80;;;;;;;34.47;26.40;101163.34;108505;1280;22174;-65
2023/06/04 08:56:37;;;;;;;1031.40;915.40;;;;;;;34.71;26.46;101163.78;108391;1280;21977;-70
2023/06/04 08:59:07;;;;;;;1052.30;912.10;;;;;;;35.03;26.36;101160.71;108499;1277;21997;-64
2023/06/04 09:01:33;;;;;;;1067.60;932.80;;;;;;;35.32;26.03;101159.48;108505;1266;21974;-64
2023/06/04 09:04:00;;;;;;;1081.40;923.30;;;;;;;35.57;25.89;101155.03;108480;1280;21991;-71
2023/06/04 09:06:26;;;;;;;1171.20;937.00;;;;;;;35.83;25.85;101155.56;108533;1277;23028;-65
2023/06/04 09:08:52;;;;;;;1111.50;945.30;;;;;;;35.97;25.39;101150.42;108481;1280;21984;-72
2023/06/04 09:11:17;;;;;;;1101.50;941.70;;;;;;;35.91;25.08;101147.59;108494;1279;21986;-67
2023/06/04 09:13:43;;;;;;;1115.20;947.20;;;;;;;35.91;25.29;101143.10;108485;1279;21999;-68
2023/06/04 09:16:09;;;;;;;1130.20;936.80;;;;;;;35.84;25.09;101141.66;108470;1274;22018;-64
2023/06/04 09:18:35;;;;;;;1187.80;939.10;;;;;;;35.65;24.92;101143.51;108406;1268;21949;-64
2023/06/04 09:21:02;;;;;;;1165.30;959.60;;;;;;;35.51;24.95;101143.48;108490;1278;23602;-68
2023/06/04 09:23:28;;;;;;;1141.90;950.90;;;;;;;35.32;24.60;101138.38;108469;1279;22018;-67
2023/06/04 09:25:53;;;;;;;1108.20;951.00;;;;;;;35.09;24.95;101139.52;108378;1274;22018;-63
2023/06/04 09:28:20;;;;;;;1145.20;945.40;;;;;;;35.06;25.10;101145.88;108411;1278;21982;-67
2023/06/04 09:30:53;;;;;;;1136.40;954.40;;;;;;;35.15;25.35;101136.31;108396;1279;21990;-65
2023/06/04 09:33:19;;;;;;;1124.80;955.60;;;;;;;35.31;25.17;101140.64;108528;1279;21985;-64
2023/06/04 09:35:54;;;;;;;1152.70;961.10;;;;;;;35.45;25.12;101142.34;108561;1277;21979;-68
2023/06/04 09:38:20;;;;;;;1101.20;946.10;;;;;;;35.55;24.87;101137.61;108502;1268;21984;-68
2023/06/04 09:40:46;;;;;;;1146.30;951.00;;;;;;;35.69;24.69;101137.39;108590;1270;22155;-64
2023/06/04 09:43:11;;;;;;;1154.10;945.70;;;;;;;35.89;24.81;101137.06;108420;1279;21987;-65
2023/06/04 09:45:37;;;;;;;1144.40;944.90;;;;;;;36.03;24.77;101135.73;108475;1270;22171;-66
2023/06/04 09:48:03;;;;;;;1224.00;942.70;;;;;;;36.13;24.71;101133.95;108387;1279;22022;-63
2023/06/04 09:50:33;;;;;;;1185.80;954.50;;;;;;;36.29;24.76;101126.70;108404;1279;21979;-68
2023/06/04 09:52:59;;;;;;;1174.10;965.90;;;;;;;36.50;24.55;101120.38;108456;1274;22038;-63
2023/06/04 09:55:25;;;;;;;1167.50;958.00;;;;;;;36.56;23.93;101118.13;108398;1279;21990;-67
2023/06/04 09:57:51;;;;;;;1157.30;966.40;;;;;;;36.53;24.42;101118.20;108405;1279;22020;-63
2023/06/04 10:00:22;;;;;;;1181.20;977.30;;;;;;;36.63;24.43;101116.73;108432;1279;24047;-64
2023/06/04 10:02:49;;;;;;;1205.30;971.90;;;;;;;36.75;24.10;101117.27;108366;1279;22055;-65
2023/06/04 10:05:15;;;;;;;1204.50;977.00;;;;;;;36.81;23.91;101120.80;108388;1274;21982;-67
2023/06/04 10:07:43;;;;;;;1188.90;957.90;;;;;;;36.80;23.78;101120.02;108415;1279;21980;-64
2023/06/04 10:10:11;;;;;;;1195.80;979.70;;;;;;;36.89;23.95;101115.89;108620;1274;21950;-64
2023/06/04 10:12:36;;;;;;;1191.50;967.70;;;;;;;36.98;23.78;101115.05;108578;1274;23706;-63
2023/06/04 10:15:05;;;;;;;1218.70;979.50;;;;;;;37.03;23.65;101115.23;108397;1279;21980;-63
2023/06/04 10:17:31;;;;;;;1237.40;976.10;;;;;;;37.02;23.43;101120.95;108431;1279;21998;-67
2023/06/04 10:19:57;;;;;;;1211.10;982.60;;;;;;;36.95;23.57;101122.61;108477;1279;21980;-65
2023/06/04 10:22:22;;;;;;;1220.70;979.00;;;;;;;36.97;23.84;101119.04;108537;1274;21983;-64
2023/06/04 10:24:48;;;;;;;1225.20;976.40;;;;;;;37.08;23.83;101112.84;108377;1279;21981;-65
2023/06/04 10:27:14;;;;;;;1241.10;975.20;;;;;;;37.24;23.42;101110.83;108507;1271;23860;-63
2023/06/04 10:29:40;;;;;;;1270.70;983.20;;;;;;;37.38;23.27;101108.27;108400;1280;21998;-63
2023/06/04 10:32:06;;;;;;;1247.50;986.10;;;;;;;37.48;23.08;101109.36;108595;1279;22038;-64
2023/06/04 10:34:32;;;;;;;1240.50;967.50;;;;;;;37.56;22.97;101115.08;108667;1277;21990;-65
2023/06/04 10:36:57;;;;;;;1255.70;983.00;;;;;;;37.62;23.10;101108.65;108517;1279;21944;-64
2023/06/04 10:39:27;;;;;;;1261.60;979.40;;;;;;;37.74;23.00;101112.31;108446;1278;21982;-64
2023/06/04 10:42:00;;;;;;;1242.10;982.90;;;;;;;37.84;22.89;101111.27;108427;1268;21985;-66
2023/06/04 10:44:26;;;;;;;1276.60;993.60;;;;;;;37.75;22.50;101115.02;108507;1274;21985;-67
2023/06/04 10:46:51;;;;;;;1290.90;985.90;;;;;;;37.59;22.83;101113.92;108466;1279;21980;-66
2023/06/04 10:49:26;;;;;;;1270.00;987.60;;;;;;;37.59;22.71;101111.16;108391;1279;21986;-67
2023/06/04 10:51:52;;;;;;;1267.00;986.40;;;;;;;37.55;22.44;101111.88;108423;1279;21986;-63
2023/06/04 10:54:26;;;;;;;1254.30;984.80;;;;;;;37.47;22.23;101110.34;108450;1271;21981;-65
2023/06/04 10:56:53;;;;;;;1287.60;989.20;;;;;;;37.44;22.64;101099.95;108587;1276;21976;-65